createdAt,value
2017-05-02T00:01:54.844Z,7.53
2017-05-02T00:04:23.768Z,12.10
2017-05-02T00:06:52.709Z,7.95
2017-05-02T00:09:21.632Z,8.60
2017-05-02T00:11:51.296Z,8.78
2017-05-02T00:14:20.251Z,8.83
2017-05-02T00:16:49.168Z,9.50
2017-05-02T00:19:18.078Z,12.08
2017-05-02T00:21:47.025Z,8.52
2017-05-02T00:24:15.947Z,8.23
2017-05-02T00:26:44.853Z,9.22
2017-05-02T00:29:13.808Z,8.07
2017-05-02T00:31:42.731Z,10.18
2017-05-02T00:34:11.654Z,8.52
2017-05-02T00:36:40.589Z,7.98
2017-05-02T00:39:09.488Z,8.27
2017-05-02T00:41:38.417Z,7.50
2017-05-02T00:44:07.729Z,9.62
2017-05-02T00:46:36.648Z,7.70
2017-05-02T00:49:06.292Z,7.37
2017-05-02T00:51:35.240Z,8.87
2017-05-02T00:54:04.149Z,7.55
2017-05-02T00:56:33.797Z,8.18
2017-05-02T00:59:02.747Z,8.67
2017-05-02T01:01:31.656Z,8.67
2017-05-02T01:04:01.302Z,7.33
2017-05-02T01:06:30.247Z,11.50
2017-05-02T01:08:59.915Z,7.92
2017-05-02T01:11:28.844Z,8.25
2017-05-02T01:13:58.542Z,8.30
2017-05-02T01:16:27.475Z,13.38
2017-05-02T01:18:56.385Z,7.88
2017-05-02T01:21:25.339Z,8.00
2017-05-02T01:23:54.984Z,9.28
2017-05-02T01:26:23.907Z,11.57
2017-05-02T01:28:52.837Z,8.57
2017-05-02T01:31:22.503Z,7.18
2017-05-02T01:33:51.424Z,8.25
2017-05-02T01:36:21.120Z,9.93
2017-05-02T01:38:50.027Z,7.70
2017-05-02T01:41:19.692Z,9.30
2017-05-02T01:43:48.644Z,9.33
2017-05-02T01:46:18.289Z,6.82
2017-05-02T01:48:47.215Z,7.38
2017-05-02T01:51:16.148Z,9.68
2017-05-02T01:53:45.058Z,10.77
2017-05-02T01:56:13.979Z,8.77
2017-05-02T01:58:42.940Z,8.15
2017-05-02T02:01:11.841Z,8.95
2017-05-02T02:03:40.751Z,8.23
2017-05-02T02:06:09.700Z,8.82
2017-05-02T02:08:38.609Z,10.28
2017-05-02T02:11:07.535Z,10.48
2017-05-02T02:13:36.488Z,12.40
2017-05-02T02:16:05.417Z,9.67
2017-05-02T02:18:34.344Z,8.83
2017-05-02T02:21:04.050Z,8.20
2017-05-02T02:23:33.701Z,8.40
2017-05-02T02:26:02.622Z,8.98
2017-05-02T02:28:31.561Z,8.38
2017-05-02T02:31:00.468Z,8.40
2017-05-02T02:33:29.378Z,9.38
2017-05-02T02:35:58.330Z,8.07
2017-05-02T02:38:28.012Z,8.52
2017-05-02T02:40:56.935Z,10.60
2017-05-02T02:43:26.624Z,8.90
2017-05-02T02:45:55.550Z,7.43
2017-05-02T02:48:24.476Z,7.48
2017-05-02T02:50:53.405Z,9.68
2017-05-02T02:53:22.310Z,7.03
2017-05-02T02:55:51.953Z,8.25
2017-05-02T02:58:20.879Z,7.40
2017-05-02T03:00:49.803Z,10.10
2017-05-02T03:03:19.472Z,8.42
2017-05-02T03:05:48.404Z,8.50
2017-05-02T03:08:18.068Z,10.82
2017-05-02T03:10:46.982Z,7.75
2017-05-02T03:13:16.047Z,10.08
2017-05-02T03:15:44.953Z,8.47
2017-05-02T03:18:13.856Z,6.73
2017-05-02T03:20:42.815Z,9.02
2017-05-02T03:23:11.733Z,7.25
2017-05-02T03:25:40.642Z,8.23
2017-05-02T03:28:09.576Z,8.40
2017-05-02T03:30:38.507Z,6.87
2017-05-02T03:33:07.404Z,7.43
2017-05-02T03:35:36.333Z,7.53
2017-05-02T03:38:05.976Z,8.35
2017-05-02T03:40:34.895Z,7.18
2017-05-02T03:43:03.964Z,9.03
2017-05-02T03:45:32.873Z,8.42
2017-05-02T03:48:01.794Z,7.62
2017-05-02T03:50:30.738Z,7.53
2017-05-02T03:52:59.642Z,8.38
2017-05-02T03:55:28.553Z,9.60
2017-05-02T03:57:57.503Z,8.50
2017-05-02T04:00:26.419Z,9.22
2017-05-02T04:02:55.340Z,7.65
2017-05-02T04:05:24.285Z,7.57
2017-05-02T04:07:53.212Z,8.08
2017-05-02T04:10:22.121Z,8.95
2017-05-02T04:12:51.191Z,10.22
2017-05-02T04:15:20.111Z,9.45
2017-05-02T04:17:49.046Z,11.18
2017-05-02T04:20:18.000Z,7.25
2017-05-02T04:22:46.928Z,9.82
2017-05-02T04:25:15.847Z,7.55
2017-05-02T04:27:44.795Z,8.22
2017-05-02T04:30:13.704Z,6.88
2017-05-02T04:32:42.609Z,7.18
2017-05-02T04:35:11.541Z,13.43
2017-05-02T04:37:40.464Z,8.10
2017-05-02T04:40:09.386Z,7.62
2017-05-02T04:42:38.330Z,7.35
2017-05-02T04:45:07.997Z,11.35
2017-05-02T04:47:36.920Z,8.00
2017-05-02T04:50:05.882Z,10.10
2017-05-02T04:52:34.789Z,9.63
2017-05-02T04:55:03.696Z,7.85
2017-05-02T04:57:32.632Z,10.75
2017-05-02T05:00:01.561Z,8.05
2017-05-02T05:02:30.484Z,7.85
2017-05-02T05:05:00.156Z,7.90
2017-05-02T05:07:29.079Z,7.63
2017-05-02T05:09:58.748Z,7.83
2017-05-02T05:12:27.712Z,10.93
2017-05-02T05:14:56.616Z,8.15
2017-05-02T05:17:25.521Z,8.00
2017-05-02T05:19:54.471Z,9.47
2017-05-02T05:22:23.400Z,8.98
2017-05-02T05:24:52.329Z,8.22
2017-05-02T05:27:21.271Z,8.13
2017-05-02T05:29:50.177Z,7.50
2017-05-02T05:32:19.085Z,10.27
2017-05-02T05:34:48.039Z,8.48
2017-05-02T05:37:16.960Z,7.98
2017-05-02T05:39:45.883Z,7.62
2017-05-02T05:42:14.812Z,7.87
2017-05-02T05:44:43.707Z,7.92
2017-05-02T05:47:12.618Z,7.38
2017-05-02T05:49:42.718Z,8.55
2017-05-02T05:52:11.646Z,8.90
2017-05-02T05:54:40.582Z,8.80
2017-05-02T05:57:09.526Z,8.22
2017-05-02T05:59:38.432Z,9.70
2017-05-02T06:02:07.361Z,8.82
2017-05-02T06:04:36.296Z,8.45
2017-05-02T06:07:05.223Z,9.38
2017-05-02T06:09:34.872Z,8.02
2017-05-02T06:12:03.804Z,7.87
2017-05-02T06:14:32.708Z,8.97
2017-05-02T06:17:01.631Z,7.42
2017-05-02T06:19:30.997Z,7.92
2017-05-02T06:21:59.910Z,10.38
2017-05-02T06:24:29.571Z,7.18
2017-05-02T06:26:58.523Z,8.12
2017-05-02T06:29:27.436Z,8.40
2017-05-02T06:31:56.345Z,8.62
2017-05-02T06:34:25.286Z,8.72
2017-05-02T06:36:54.218Z,7.50
2017-05-02T06:39:23.147Z,8.57
2017-05-02T06:41:52.114Z,7.72
2017-05-02T06:44:21.023Z,8.00
2017-05-02T06:46:49.934Z,8.98
2017-05-02T06:49:18.907Z,8.37
2017-05-02T06:51:47.842Z,8.85
2017-05-02T06:54:17.510Z,8.22
2017-05-02T06:56:46.447Z,8.15
2017-05-02T06:59:15.358Z,8.95
2017-05-02T07:01:44.272Z,8.37
2017-05-02T07:04:13.228Z,7.37
2017-05-02T07:06:42.149Z,7.37
2017-05-02T07:09:11.075Z,9.95
2017-05-02T07:11:40.004Z,13.15
2017-05-02T07:14:08.917Z,8.03
2017-05-02T07:16:37.843Z,8.52
2017-05-02T07:19:06.773Z,8.55
2017-05-02T07:21:35.692Z,8.38
2017-05-02T07:24:04.593Z,7.97
2017-05-02T07:26:33.927Z,7.73
2017-05-02T07:29:02.838Z,8.12
2017-05-02T07:31:32.513Z,10.88
2017-05-02T07:34:01.451Z,9.52
2017-05-02T07:36:31.120Z,8.93
2017-05-02T07:39:00.043Z,8.65
2017-05-02T07:41:29.717Z,8.92
2017-05-02T07:43:58.644Z,9.05
2017-05-02T07:46:28.297Z,7.45
2017-05-02T07:48:57.263Z,7.47
2017-05-02T07:51:26.192Z,9.93
2017-05-02T07:53:55.097Z,8.73
2017-05-02T07:56:24.407Z,10.32
2017-05-02T07:58:53.328Z,9.45
2017-05-02T08:01:22.981Z,9.53
2017-05-02T08:03:51.927Z,9.78
2017-05-02T08:06:21.587Z,8.82
2017-05-02T08:08:51.248Z,7.25
2017-05-02T08:11:20.205Z,7.63
2017-05-02T08:13:49.133Z,8.37
2017-05-02T08:16:18.049Z,10.45
2017-05-02T08:18:47.005Z,7.25
2017-05-02T08:21:15.926Z,7.73
2017-05-02T08:23:44.834Z,7.28
2017-05-02T08:26:13.791Z,6.68
2017-05-02T08:28:42.719Z,12.83
2017-05-02T08:31:11.636Z,8.17
2017-05-02T08:33:41.317Z,8.25
2017-05-02T08:36:10.225Z,9.62
2017-05-02T08:38:39.893Z,6.75
2017-05-02T08:41:08.824Z,7.30
2017-05-02T08:43:38.488Z,7.72
2017-05-02T08:46:07.399Z,7.78
2017-05-02T08:48:36.359Z,6.37
2017-05-02T08:51:05.270Z,6.98
2017-05-02T08:53:34.197Z,6.32
2017-05-02T08:56:03.160Z,5.75
2017-05-02T08:58:32.089Z,6.43
2017-05-02T09:01:01.744Z,6.72
2017-05-02T09:03:30.708Z,6.85
2017-05-02T09:05:59.641Z,6.00
2017-05-02T09:08:28.548Z,6.58
2017-05-02T09:10:57.504Z,6.12
2017-05-02T09:13:26.434Z,5.33
2017-05-02T09:15:55.341Z,5.18
2017-05-02T09:18:24.281Z,5.12
2017-05-02T09:20:53.210Z,6.10
2017-05-02T09:23:22.116Z,6.92
2017-05-02T09:25:51.044Z,5.58
2017-05-02T09:28:19.981Z,5.48
2017-05-02T09:30:48.888Z,4.90
2017-05-02T09:33:18.561Z,5.63
2017-05-02T09:35:47.491Z,5.60
2017-05-02T09:38:17.143Z,5.23
2017-05-02T09:40:46.082Z,4.80
2017-05-02T09:43:14.990Z,5.57
2017-05-02T09:45:44.662Z,5.43
2017-05-02T09:48:13.612Z,5.67
2017-05-02T09:50:42.532Z,5.18
2017-05-02T09:53:11.459Z,10.62
2017-05-02T09:55:40.412Z,4.77
2017-05-02T09:58:09.329Z,5.63
2017-05-02T10:00:38.266Z,4.80
2017-05-02T10:03:07.206Z,5.27
2017-05-02T10:05:36.122Z,4.33
2017-05-02T10:08:05.028Z,4.33
2017-05-02T10:10:34.716Z,6.02
2017-05-02T10:13:03.628Z,4.55
2017-05-02T10:15:33.292Z,6.07
2017-05-02T10:18:02.250Z,4.62
2017-05-02T10:20:31.186Z,5.32
2017-05-02T10:23:00.108Z,5.47
2017-05-02T10:25:29.799Z,4.80
2017-05-02T10:27:58.708Z,6.15
2017-05-02T10:30:28.382Z,4.83
2017-05-02T10:32:57.339Z,5.30
2017-05-02T10:35:26.264Z,7.18
2017-05-02T10:37:55.187Z,6.18
2017-05-02T10:40:24.121Z,5.52
2017-05-02T10:42:53.050Z,4.42
2017-05-02T10:45:21.956Z,6.90
2017-05-02T10:47:50.889Z,4.53
2017-05-02T10:50:19.817Z,4.98
2017-05-02T10:52:48.735Z,6.23
2017-05-02T10:55:17.695Z,5.38
2017-05-02T10:57:46.604Z,5.17
2017-05-02T11:00:15.528Z,6.13
2017-05-02T11:02:45.213Z,4.78
2017-05-02T11:05:14.136Z,6.25
2017-05-02T11:07:43.796Z,5.22
2017-05-02T11:10:12.775Z,4.47
2017-05-02T11:12:41.699Z,4.37
2017-05-02T11:15:10.622Z,4.58
2017-05-02T11:17:40.324Z,5.38
2017-05-02T11:20:09.993Z,10.68
2017-05-02T11:22:38.920Z,4.67
2017-05-02T11:25:07.863Z,4.70
2017-05-02T11:27:36.795Z,6.97
2017-05-02T11:30:05.719Z,4.65
2017-05-02T11:32:35.398Z,5.05
2017-05-02T11:35:04.329Z,8.55
2017-05-02T11:37:33.255Z,5.38
2017-05-02T11:40:02.212Z,4.08
2017-05-02T11:42:31.140Z,5.22
2017-05-02T11:45:00.053Z,6.00
2017-05-02T11:47:28.984Z,4.77
2017-05-02T11:49:58.648Z,6.10
2017-05-02T11:52:27.554Z,4.52
2017-05-02T11:54:56.480Z,5.98
2017-05-02T11:57:26.129Z,5.20
2017-05-02T11:59:55.041Z,6.88
2017-05-02T12:02:23.977Z,7.25
2017-05-02T12:04:52.911Z,7.58
2017-05-02T12:07:21.813Z,8.72
2017-05-02T12:09:50.768Z,12.72
2017-05-02T12:12:19.694Z,8.68
2017-05-02T12:14:48.613Z,12.97
2017-05-02T12:17:17.575Z,13.75
2017-05-02T12:19:46.486Z,6.88
2017-05-02T12:22:15.402Z,9.02
2017-05-02T12:24:45.095Z,10.53
2017-05-02T12:27:14.019Z,7.17
2017-05-02T12:29:42.933Z,16.08
2017-05-02T12:32:11.890Z,9.23
2017-05-02T12:34:41.540Z,8.85
2017-05-02T12:37:10.449Z,9.48
2017-05-02T12:39:39.386Z,8.45
2017-05-02T12:42:09.033Z,7.20
2017-05-02T12:44:37.957Z,7.47
2017-05-02T12:47:06.892Z,7.02
2017-05-02T12:49:35.800Z,8.47
2017-05-02T12:52:04.709Z,7.67
2017-05-02T12:57:02.592Z,9.75
2017-05-02T12:59:31.510Z,7.27
2017-05-02T13:02:00.466Z,6.57
2017-05-02T13:04:29.369Z,7.73
2017-05-02T13:06:58.298Z,8.95
2017-05-02T13:09:27.245Z,9.55
2017-05-02T13:11:56.168Z,8.67
2017-05-02T13:14:25.101Z,11.78
2017-05-02T13:16:54.043Z,11.80
2017-05-02T13:19:22.955Z,9.12
2017-05-02T13:21:51.888Z,10.20
2017-05-02T13:24:20.844Z,8.25
2017-05-02T13:26:49.768Z,7.43
2017-05-02T13:29:18.696Z,12.88
2017-05-02T13:31:47.633Z,13.87
2017-05-02T13:34:18.250Z,7.87
2017-05-02T13:36:47.185Z,9.03
2017-05-02T13:39:16.140Z,12.77
2017-05-02T13:41:45.076Z,12.58
2017-05-02T13:44:13.999Z,10.85
2017-05-02T13:46:42.960Z,10.47
2017-05-02T13:49:11.873Z,10.42
2017-05-02T13:51:40.798Z,13.03
2017-05-02T13:54:09.757Z,9.30
2017-05-02T13:56:38.686Z,9.85
2017-05-02T13:59:07.623Z,14.87
2017-05-02T14:01:36.580Z,11.13
2017-05-02T14:04:06.251Z,12.78
2017-05-02T14:06:35.161Z,7.67
2017-05-02T14:09:04.108Z,8.68
2017-05-02T14:11:33.021Z,19.43
2017-05-02T14:14:01.948Z,8.82
2017-05-02T14:16:30.882Z,8.18
2017-05-02T14:18:59.809Z,7.48
2017-05-02T14:21:28.717Z,6.77
2017-05-02T14:23:57.667Z,6.87
2017-05-02T14:26:26.580Z,6.53
2017-05-02T14:28:55.493Z,11.95
2017-05-02T14:31:24.471Z,7.95
2017-05-02T14:33:53.403Z,7.95
2017-05-02T14:36:23.069Z,8.93
2017-05-02T14:38:52.010Z,9.03
2017-05-02T14:41:21.657Z,8.83
2017-05-02T14:43:50.588Z,13.40
2017-05-02T14:46:19.535Z,9.67
2017-05-02T14:48:48.448Z,7.68
2017-05-02T14:51:17.356Z,8.18
2017-05-02T14:53:46.289Z,7.82
2017-05-02T14:56:15.196Z,8.83
2017-05-02T14:58:44.119Z,8.83
2017-05-02T15:01:13.054Z,9.52
2017-05-02T15:03:42.418Z,7.32
2017-05-02T15:06:11.329Z,11.35
2017-05-02T15:08:41.004Z,8.17
2017-05-02T15:11:09.930Z,8.87
2017-05-02T15:13:39.600Z,7.97
2017-05-02T15:16:08.542Z,8.08
2017-05-02T15:18:37.460Z,10.02
2017-05-02T15:21:06.376Z,7.67
2017-05-02T15:23:36.310Z,8.72
2017-05-02T15:26:05.240Z,7.32
2017-05-02T15:28:34.144Z,9.92
2017-05-02T15:31:03.090Z,7.92
2017-05-02T15:33:31.999Z,8.30
2017-05-02T15:36:01.779Z,8.73
2017-05-02T15:38:30.724Z,8.98
2017-05-02T15:40:59.641Z,9.17
2017-05-02T15:43:28.549Z,8.85
2017-05-02T15:45:57.484Z,8.65
2017-05-02T15:48:26.407Z,9.02
2017-05-02T15:50:55.319Z,8.27
2017-05-02T15:53:24.285Z,8.43
2017-05-02T15:55:53.220Z,8.45
2017-05-02T15:58:22.156Z,13.05
2017-05-02T16:00:51.829Z,7.65
2017-05-02T16:03:20.753Z,7.08
2017-05-02T16:05:49.679Z,7.85
2017-05-02T16:08:18.634Z,6.82
2017-05-02T16:10:47.578Z,7.95
2017-05-02T16:13:16.515Z,7.77
2017-05-02T16:15:45.452Z,7.72
2017-05-02T16:18:14.501Z,7.10
2017-05-02T16:20:43.428Z,8.07
2017-05-02T16:23:12.356Z,8.82
2017-05-02T16:25:41.261Z,9.23
2017-05-02T16:28:10.187Z,10.40
2017-05-02T16:30:39.860Z,7.85
2017-05-02T16:33:08.765Z,10.63
2017-05-02T16:35:37.723Z,9.67
2017-05-02T16:38:06.674Z,12.03
2017-05-02T16:40:36.343Z,10.50
2017-05-02T16:43:05.260Z,8.98
2017-05-02T16:45:34.206Z,9.73
2017-05-02T16:48:03.183Z,7.08
2017-05-02T16:50:32.108Z,9.85
2017-05-02T16:53:01.061Z,8.62
2017-05-02T16:55:29.976Z,8.45
2017-05-02T16:57:58.905Z,8.00
2017-05-02T17:00:27.845Z,12.27
2017-05-02T17:02:56.806Z,8.65
2017-05-02T17:05:25.728Z,9.82
2017-05-02T17:07:54.675Z,7.90
2017-05-02T17:10:23.584Z,9.07
2017-05-02T17:12:53.265Z,8.30
2017-05-02T17:15:22.204Z,9.77
2017-05-02T17:17:51.890Z,10.40
2017-05-02T17:20:20.818Z,8.92
2017-05-02T17:22:49.789Z,10.80
2017-05-02T17:25:19.437Z,10.15
2017-05-02T17:27:48.365Z,13.05
2017-05-02T17:30:17.326Z,10.50
2017-05-02T17:32:46.241Z,10.68
2017-05-02T17:35:15.172Z,9.12
2017-05-02T17:37:44.849Z,10.73
2017-05-02T17:40:13.778Z,13.08
2017-05-02T17:42:43.443Z,12.27
2017-05-02T17:45:12.386Z,12.42
2017-05-02T17:47:41.324Z,10.65
2017-05-02T17:50:10.266Z,14.50
2017-05-02T17:52:40.346Z,17.10
2017-05-02T17:55:09.257Z,14.28
2017-05-02T17:57:38.183Z,18.18
2017-05-02T18:00:07.130Z,13.62
2017-05-02T18:02:36.067Z,16.52
2017-05-02T18:05:04.973Z,12.23
2017-05-02T18:07:33.926Z,11.95
2017-05-02T18:10:03.582Z,16.85
2017-05-02T18:12:32.512Z,15.27
2017-05-02T18:15:01.450Z,16.10
2017-05-02T18:17:30.381Z,16.15
2017-05-02T18:19:59.305Z,14.63
2017-05-02T18:22:29.116Z,13.27
2017-05-02T18:24:58.785Z,14.20
2017-05-02T18:27:27.714Z,17.53
2017-05-02T18:29:57.409Z,17.13
2017-05-02T18:32:26.339Z,18.28
2017-05-02T18:34:55.259Z,12.10
2017-05-02T18:37:24.191Z,14.87
2017-05-02T18:39:53.117Z,14.70
2017-05-02T18:42:22.054Z,13.55
2017-05-02T18:44:51.003Z,10.67
2017-05-02T18:47:19.921Z,19.08
2017-05-02T18:49:48.832Z,15.12
2017-05-02T18:52:17.792Z,12.25
2017-05-02T18:54:46.712Z,11.28
2017-05-02T18:57:15.631Z,12.60
2017-05-02T18:59:44.570Z,12.45
2017-05-02T19:02:13.474Z,15.17
2017-05-02T19:04:42.380Z,11.23
2017-05-02T19:07:11.327Z,12.18
2017-05-02T19:09:40.996Z,11.88
2017-05-02T19:12:09.919Z,13.83
2017-05-02T19:14:39.618Z,11.98
2017-05-02T19:17:08.536Z,12.48
2017-05-02T19:19:37.464Z,10.17
2017-05-02T19:22:06.419Z,9.53
2017-05-02T19:24:35.357Z,14.57
2017-05-02T19:27:04.265Z,9.45
2017-05-02T19:29:33.206Z,13.70
2017-05-02T19:32:02.118Z,10.58
2017-05-02T19:34:31.022Z,9.85
2017-05-02T19:36:59.976Z,12.07
2017-05-02T19:39:28.924Z,12.47
2017-05-02T19:41:57.837Z,10.22
2017-05-02T19:44:26.769Z,9.18
2017-05-02T19:46:55.699Z,11.30
2017-05-02T19:49:24.606Z,11.23
2017-05-02T19:51:53.533Z,12.22
2017-05-02T19:54:22.445Z,11.35
2017-05-02T19:56:51.351Z,12.22
2017-05-02T19:59:20.304Z,10.55
2017-05-02T20:01:49.217Z,10.50
2017-05-02T20:04:18.121Z,10.45
2017-05-02T20:06:47.072Z,12.58
2017-05-02T20:09:16.721Z,9.62
2017-05-02T20:11:45.651Z,11.85
2017-05-02T20:14:14.605Z,11.00
2017-05-02T20:16:43.538Z,11.43
2017-05-02T20:19:12.440Z,14.88
2017-05-02T20:21:42.103Z,11.57
2017-05-02T20:24:11.033Z,10.38
2017-05-02T20:26:39.989Z,10.33
2017-05-02T20:29:08.905Z,11.27
2017-05-02T20:31:37.814Z,10.80
2017-05-02T20:34:07.465Z,15.18
2017-05-02T20:36:36.395Z,10.62
2017-05-02T20:39:05.311Z,11.70
2017-05-02T20:41:34.980Z,11.92
2017-05-02T20:44:03.917Z,10.65
2017-05-02T20:46:33.581Z,10.05
2017-05-02T20:49:02.492Z,10.57
2017-05-02T20:51:31.419Z,10.77
2017-05-02T20:54:01.083Z,8.68
2017-05-02T20:56:29.994Z,12.92
2017-05-02T20:58:58.929Z,11.70
2017-05-02T21:01:27.860Z,12.55
2017-05-02T21:03:56.796Z,14.12
2017-05-02T21:06:26.488Z,12.67
2017-05-02T21:08:55.415Z,13.27
2017-05-02T21:11:24.340Z,10.15
2017-05-02T21:13:53.241Z,10.98
2017-05-02T21:16:22.176Z,10.07
2017-05-02T21:18:52.292Z,13.28
2017-05-02T21:21:21.262Z,9.92
2017-05-02T21:23:50.211Z,11.35
2017-05-02T21:26:19.141Z,11.15
2017-05-02T21:28:48.056Z,9.85
2017-05-02T21:31:17.705Z,12.42
2017-05-02T21:33:46.616Z,9.02
2017-05-02T21:36:15.568Z,10.88
2017-05-02T21:38:44.496Z,11.78
2017-05-02T21:41:13.420Z,12.78
2017-05-02T21:43:42.368Z,13.82
2017-05-02T21:46:11.272Z,12.78
2017-05-02T21:48:40.278Z,16.50
2017-05-02T21:51:09.228Z,9.98
2017-05-02T21:53:38.150Z,10.47
2017-05-02T21:56:07.075Z,12.52
2017-05-02T21:58:35.997Z,9.27
2017-05-02T22:01:04.926Z,11.35
2017-05-02T22:03:33.842Z,10.40
2017-05-02T22:06:02.802Z,13.20
2017-05-02T22:08:31.842Z,10.43
2017-05-02T22:11:01.505Z,12.05
2017-05-02T22:13:30.451Z,10.90
2017-05-02T22:16:00.103Z,12.17
2017-05-02T22:18:29.010Z,11.68
2017-05-02T22:20:57.949Z,14.12
2017-05-02T22:23:27.607Z,10.67
2017-05-02T22:25:56.523Z,11.02
2017-05-02T22:28:25.455Z,9.55
2017-05-02T22:30:55.101Z,13.73
2017-05-02T22:33:24.010Z,10.37
2017-05-02T22:35:52.949Z,12.18
2017-05-02T22:38:21.883Z,12.62
2017-05-02T22:40:50.807Z,11.37
2017-05-02T22:43:19.739Z,13.98
2017-05-02T22:45:48.659Z,9.22
2017-05-02T22:48:17.580Z,9.25
2017-05-02T22:50:46.575Z,11.77
2017-05-02T22:53:15.504Z,11.35
2017-05-02T22:55:44.424Z,11.12
2017-05-02T22:58:13.374Z,13.00
2017-05-02T23:00:43.048Z,11.57
2017-05-02T23:03:11.973Z,9.75
2017-05-02T23:05:41.663Z,11.37
2017-05-02T23:08:10.572Z,11.48
2017-05-02T23:10:40.221Z,16.00
2017-05-02T23:13:09.172Z,14.03
2017-05-02T23:15:38.820Z,13.60
2017-05-02T23:18:07.725Z,10.92
2017-05-02T23:20:36.691Z,14.90
2017-05-02T23:23:05.609Z,11.35
2017-05-02T23:25:34.536Z,10.42
2017-05-02T23:28:03.483Z,10.53
2017-05-02T23:30:32.389Z,14.72
2017-05-02T23:33:01.294Z,11.35
2017-05-02T23:35:30.228Z,12.22
2017-05-02T23:37:59.895Z,10.08
2017-05-02T23:40:28.798Z,15.30
2017-05-02T23:42:57.744Z,13.75
2017-05-02T23:45:27.393Z,16.25
2017-05-02T23:47:56.324Z,16.40
2017-05-02T23:50:26.270Z,21.28
2017-05-02T23:52:55.917Z,11.42
2017-05-02T23:55:24.844Z,12.63
2017-05-02T23:57:53.795Z,14.08
